createdAt,value
2023-03-29T00:02:20.248Z,63.54
2023-03-29T00:04:47.636Z,63.41
2023-03-29T00:07:14.883Z,63.93
2023-03-29T00:09:42.680Z,63.69
2023-03-29T00:12:11.634Z,64.88
2023-03-29T00:14:38.895Z,64.71
2023-03-29T00:17:06.594Z,63.68
2023-03-29T00:19:36.844Z,64.13
2023-03-29T00:22:09.275Z,63.86
2023-03-29T00:24:36.841Z,64.12
2023-03-29T00:27:04.894Z,63.51
2023-03-29T00:29:32.612Z,63.50
2023-03-29T00:31:59.883Z,63.29
2023-03-29T00:34:31.301Z,63.24
2023-03-29T00:36:59.273Z,62.68
2023-03-29T00:39:28.156Z,62.61
2023-03-29T00:41:56.192Z,62.59
2023-03-29T00:45:16.020Z,63.33
2023-03-29T00:47:53.619Z,63.99
2023-03-29T00:50:26.501Z,63.72
2023-03-29T00:52:57.515Z,63.82
2023-03-29T00:55:27.849Z,63.41
2023-03-29T00:57:57.926Z,63.65
2023-03-29T01:00:31.989Z,63.50
2023-03-29T01:03:02.379Z,63.77
2023-03-29T01:05:37.760Z,63.55
2023-03-29T01:08:12.443Z,63.27
2023-03-29T01:10:45.971Z,63.87
2023-03-29T01:13:26.440Z,63.58
2023-03-29T01:15:57.716Z,63.55
2023-03-29T01:18:25.253Z,63.98
2023-03-29T01:21:33.252Z,63.80
2023-03-29T01:24:13.432Z,64.34
2023-03-29T01:26:49.089Z,63.87
2023-03-29T01:29:26.044Z,63.54
2023-03-29T01:32:09.210Z,63.75
2023-03-29T01:34:58.711Z,64.04
2023-03-29T01:37:41.488Z,64.21
2023-03-29T01:40:09.138Z,63.81
2023-03-29T01:42:56.369Z,63.87
2023-03-29T01:45:56.300Z,64.05
2023-03-29T01:48:31.299Z,63.95
2023-03-29T01:51:16.675Z,64.29
2023-03-29T01:54:08.116Z,64.34
2023-03-29T01:56:40.133Z,63.94
2023-03-29T01:59:13.548Z,63.91
2023-03-29T02:01:53.129Z,64.45
2023-03-29T02:04:30.697Z,63.74
2023-03-29T02:07:00.845Z,64.12
2023-03-29T02:09:29.911Z,63.57
2023-03-29T02:12:00.983Z,64.15
2023-03-29T02:14:29.629Z,63.85
2023-03-29T02:17:22.049Z,63.77
2023-03-29T02:20:04.919Z,63.74
2023-03-29T02:22:40.316Z,63.46
2023-03-29T02:25:09.548Z,63.47
2023-03-29T02:27:40.201Z,63.07
2023-03-29T02:30:11.339Z,63.47
2023-03-29T02:33:15.999Z,63.83
2023-03-29T02:35:54.689Z,63.03
2023-03-29T02:38:27.865Z,63.33
2023-03-29T02:40:56.720Z,63.38
2023-03-29T02:43:26.134Z,63.23
2023-03-29T02:45:53.744Z,63.35
2023-03-29T02:48:25.708Z,63.67
2023-03-29T02:50:58.028Z,62.84
2023-03-29T02:53:32.880Z,63.04
2023-03-29T02:56:02.404Z,63.01
2023-03-29T02:58:31.785Z,62.96
2023-03-29T03:01:02.432Z,62.89
2023-03-29T03:03:29.843Z,62.99
2023-03-29T03:06:01.806Z,62.78
2023-03-29T03:08:30.355Z,62.17
2023-03-29T03:10:57.480Z,62.11
2023-03-29T03:13:26.248Z,62.12
2023-03-29T03:15:54.272Z,61.94
2023-03-29T03:18:22.296Z,62.02
2023-03-29T03:20:57.279Z,62.11
2023-03-29T03:23:25.131Z,62.33
2023-03-29T03:25:52.986Z,62.25
2023-03-29T03:28:22.168Z,62.96
2023-03-29T03:30:49.741Z,63.05
2023-03-29T03:33:49.148Z,62.94
2023-03-29T03:36:34.738Z,62.37
2023-03-29T03:39:03.848Z,62.69
2023-03-29T03:41:32.744Z,62.67
2023-03-29T03:44:00.592Z,62.25
2023-03-29T03:46:29.686Z,63.00
2023-03-29T03:48:57.788Z,63.01
2023-03-29T03:51:31.425Z,62.91
2023-03-29T03:53:58.727Z,63.39
2023-03-29T03:56:46.082Z,62.78
2023-03-29T03:59:33.702Z,63.06
2023-03-29T04:02:05.859Z,62.65
2023-03-29T04:04:34.507Z,62.52
2023-03-29T04:07:13.285Z,62.76
2023-03-29T04:09:40.329Z,62.63
2023-03-29T04:12:27.568Z,62.33
2023-03-29T04:14:55.568Z,62.44
2023-03-29T04:17:24.521Z,62.50
2023-03-29T04:20:12.802Z,62.74
2023-03-29T04:22:41.376Z,63.16
2023-03-29T04:25:10.542Z,62.82
2023-03-29T04:27:50.524Z,62.69
2023-03-29T04:30:46.044Z,62.38
2023-03-29T04:33:32.083Z,62.04
2023-03-29T04:36:01.008Z,61.90
2023-03-29T04:38:30.241Z,61.51
2023-03-29T04:40:57.307Z,61.63
2023-03-29T04:43:46.800Z,61.63
2023-03-29T04:46:30.372Z,61.50
2023-03-29T04:49:16.794Z,61.80
2023-03-29T04:51:47.972Z,61.79
2023-03-29T04:54:18.232Z,61.85
2023-03-29T04:57:01.950Z,62.21
2023-03-29T04:59:32.402Z,61.93
2023-03-29T05:02:03.180Z,61.98
2023-03-29T05:04:33.199Z,61.43
2023-03-29T05:07:09.738Z,61.57
2023-03-29T05:09:37.623Z,61.44
2023-03-29T05:12:05.441Z,61.18
2023-03-29T05:14:45.864Z,61.09
2023-03-29T05:17:13.495Z,61.20
2023-03-29T05:19:41.005Z,61.17
2023-03-29T05:22:09.089Z,61.59
2023-03-29T05:24:37.643Z,61.13
2023-03-29T05:27:13.614Z,60.77
2023-03-29T05:29:41.979Z,59.99
2023-03-29T05:32:28.234Z,60.83
2023-03-29T05:34:55.921Z,59.30
2023-03-29T05:37:23.265Z,59.12
2023-03-29T05:40:06.190Z,59.64
2023-03-29T05:42:38.751Z,59.03
2023-03-29T05:45:09.248Z,58.39
2023-03-29T05:47:37.071Z,58.99
2023-03-29T05:50:05.762Z,59.28
2023-03-29T05:52:32.877Z,58.86
2023-03-29T05:55:00.008Z,58.27
2023-03-29T05:57:27.686Z,57.99
2023-03-29T05:59:55.284Z,57.89
2023-03-29T06:02:23.413Z,58.15
2023-03-29T06:04:54.177Z,57.60
2023-03-29T06:07:38.498Z,57.91
2023-03-29T06:10:28.939Z,58.33
2023-03-29T06:13:11.027Z,57.79
2023-03-29T06:15:38.826Z,57.71
2023-03-29T06:18:07.549Z,57.68
2023-03-29T06:20:35.907Z,58.43
2023-03-29T06:23:10.124Z,58.60
2023-03-29T06:25:38.181Z,58.25
2023-03-29T06:28:06.146Z,58.10
2023-03-29T06:30:34.479Z,58.35
2023-03-29T06:33:01.731Z,57.87
2023-03-29T06:35:50.186Z,56.92
2023-03-29T06:38:22.018Z,57.83
2023-03-29T06:41:16.968Z,58.21
2023-03-29T06:44:19.392Z,60.00
2023-03-29T06:46:58.296Z,60.60
2023-03-29T06:49:26.412Z,60.94
2023-03-29T06:52:22.831Z,60.96
2023-03-29T06:54:51.044Z,61.80
2023-03-29T06:57:18.885Z,62.39
2023-03-29T06:59:46.711Z,63.21
2023-03-29T07:02:21.653Z,62.22
2023-03-29T07:04:56.366Z,63.11
2023-03-29T07:08:11.367Z,62.56
2023-03-29T07:10:54.108Z,62.01
2023-03-29T07:13:27.768Z,62.73
2023-03-29T07:15:58.669Z,62.84
2023-03-29T07:18:41.871Z,63.63
2023-03-29T07:21:12.771Z,64.21
2023-03-29T07:23:41.224Z,65.40
2023-03-29T07:26:09.239Z,64.18
2023-03-29T07:28:37.775Z,64.29
2023-03-29T07:31:07.803Z,63.97
2023-03-29T07:33:41.031Z,64.09
2023-03-29T07:36:09.796Z,64.83
2023-03-29T07:38:38.013Z,64.51
2023-03-29T07:41:11.973Z,64.30
2023-03-29T07:43:39.286Z,64.58
2023-03-29T07:46:10.157Z,63.49
2023-03-29T07:48:38.907Z,63.67
2023-03-29T07:51:08.629Z,62.85
2023-03-29T07:53:47.642Z,62.41
2023-03-29T07:56:39.396Z,61.62
2023-03-29T07:59:16.704Z,62.21
2023-03-29T08:01:46.489Z,62.53
2023-03-29T08:04:34.063Z,62.56
2023-03-29T08:07:21.603Z,62.24
2023-03-29T08:10:04.424Z,62.22
2023-03-29T08:12:54.507Z,62.57
2023-03-29T08:15:28.919Z,63.10
2023-03-29T08:17:56.105Z,61.90
2023-03-29T08:20:24.722Z,62.54
2023-03-29T08:22:55.359Z,62.51
2023-03-29T08:25:22.463Z,61.98
2023-03-29T08:27:53.688Z,61.88
2023-03-29T08:30:53.729Z,62.40
2023-03-29T08:33:22.344Z,61.62
2023-03-29T08:35:59.116Z,62.26
2023-03-29T08:38:30.533Z,62.71
2023-03-29T08:40:58.023Z,62.83
2023-03-29T08:43:58.123Z,64.25
2023-03-29T08:46:52.386Z,63.63
2023-03-29T08:49:29.329Z,64.80
2023-03-29T08:52:48.517Z,65.27
2023-03-29T08:55:45.478Z,65.27
2023-03-29T08:58:46.875Z,65.13
2023-03-29T09:01:14.569Z,65.94
2023-03-29T09:04:20.271Z,66.29
2023-03-29T09:06:53.180Z,66.66
2023-03-29T09:09:34.036Z,66.68
2023-03-29T09:12:27.514Z,66.24
2023-03-29T09:14:54.607Z,66.58
2023-03-29T09:17:33.705Z,67.61
2023-03-29T09:20:15.386Z,67.60
2023-03-29T09:23:08.942Z,67.69
2023-03-29T09:26:24.720Z,68.02
2023-03-29T09:29:09.007Z,68.71
2023-03-29T09:31:44.915Z,68.39
2023-03-29T09:34:27.882Z,69.35
2023-03-29T09:37:08.927Z,69.70
2023-03-29T09:39:38.831Z,70.65
2023-03-29T09:42:14.307Z,71.81
2023-03-29T09:44:52.829Z,72.56
2023-03-29T09:47:30.249Z,73.05
2023-03-29T09:50:05.110Z,72.93
2023-03-29T09:52:32.945Z,72.06
2023-03-29T09:55:16.172Z,72.42
2023-03-29T09:57:53.000Z,73.31
2023-03-29T10:00:20.775Z,73.39
2023-03-29T10:02:52.907Z,73.68
2023-03-29T10:05:26.579Z,73.72
2023-03-29T10:07:59.911Z,73.34
2023-03-29T10:10:33.207Z,74.94
2023-03-29T10:13:05.608Z,73.94
2023-03-29T10:15:33.411Z,74.39
2023-03-29T10:18:12.633Z,73.96
2023-03-29T10:20:41.284Z,74.27
2023-03-29T10:23:09.422Z,73.17
2023-03-29T10:25:42.953Z,73.36
2023-03-29T10:28:18.861Z,73.31
2023-03-29T10:30:52.824Z,73.36
2023-03-29T10:33:23.233Z,73.42
2023-03-29T10:35:51.284Z,74.67
2023-03-29T10:38:22.048Z,74.73
2023-03-29T10:40:51.900Z,74.80
2023-03-29T10:43:26.834Z,74.88
2023-03-29T10:45:57.433Z,75.68
2023-03-29T10:48:29.978Z,76.25
2023-03-29T10:51:02.194Z,75.67
2023-03-29T10:53:33.049Z,75.86
2023-03-29T10:56:24.675Z,75.47
2023-03-29T10:59:23.329Z,76.81
2023-03-29T11:02:15.515Z,77.17
2023-03-29T11:04:48.331Z,77.14
2023-03-29T11:07:37.303Z,76.92
2023-03-29T11:10:46.142Z,78.36
2023-03-29T11:13:24.967Z,77.16
2023-03-29T11:16:19.868Z,77.67
2023-03-29T11:19:16.362Z,76.80
2023-03-29T11:21:53.997Z,76.46
2023-03-29T11:24:36.124Z,77.73
2023-03-29T11:27:41.610Z,77.87
2023-03-29T11:30:25.742Z,78.08
2023-03-29T11:33:03.085Z,78.45
2023-03-29T11:35:38.974Z,78.46
2023-03-29T11:38:19.361Z,79.50
2023-03-29T11:41:18.991Z,79.85
2023-03-29T11:43:59.474Z,80.84
2023-03-29T11:46:35.562Z,80.29
2023-03-29T11:49:11.277Z,80.93
2023-03-29T11:51:44.291Z,81.69
2023-03-29T11:54:22.420Z,81.32
2023-03-29T11:57:02.547Z,81.71
2023-03-29T11:59:58.976Z,80.95
2023-03-29T12:02:32.310Z,81.63
2023-03-29T12:05:05.428Z,81.62
2023-03-29T12:07:40.179Z,81.05
2023-03-29T12:10:17.547Z,80.72
2023-03-29T12:13:03.128Z,81.49
2023-03-29T12:15:37.203Z,80.46
2023-03-29T12:18:27.314Z,80.73
2023-03-29T12:21:00.337Z,80.71
2023-03-29T12:23:34.769Z,81.32
2023-03-29T12:26:17.144Z,81.00
2023-03-29T12:29:01.132Z,81.60
2023-03-29T12:32:05.605Z,81.34
2023-03-29T12:34:51.904Z,81.70
2023-03-29T12:38:01.144Z,81.72
2023-03-29T12:41:30.658Z,81.98
2023-03-29T12:44:33.229Z,82.02
2023-03-29T12:47:23.949Z,81.88
2023-03-29T12:49:59.564Z,81.93
2023-03-29T12:52:36.840Z,82.31
2023-03-29T12:55:18.072Z,82.69
2023-03-29T12:58:05.656Z,82.47
2023-03-29T13:00:44.893Z,82.30
2023-03-29T13:03:29.363Z,81.80
2023-03-29T13:06:02.706Z,80.77
2023-03-29T13:08:40.342Z,80.37
2023-03-29T13:11:13.641Z,80.71
2023-03-29T13:13:43.206Z,81.90
2023-03-29T13:16:16.526Z,80.54
2023-03-29T13:19:02.438Z,80.99
2023-03-29T13:21:41.607Z,80.56
2023-03-29T13:24:28.055Z,81.18
2023-03-29T13:27:07.350Z,80.98
2023-03-29T13:29:41.616Z,81.52
2023-03-29T13:32:21.942Z,80.42
2023-03-29T13:35:18.484Z,80.50
2023-03-29T13:38:16.512Z,80.50
2023-03-29T13:41:05.098Z,80.56
2023-03-29T13:43:35.247Z,80.30
2023-03-29T13:46:04.070Z,80.32
2023-03-29T13:48:46.706Z,80.44
2023-03-29T13:51:13.673Z,79.88
2023-03-29T13:53:48.065Z,80.53
2023-03-29T13:56:24.810Z,79.70
2023-03-29T13:58:58.199Z,79.49
2023-03-29T14:01:43.954Z,79.28
2023-03-29T14:04:24.341Z,79.55
2023-03-29T14:06:54.649Z,79.34
2023-03-29T14:09:33.397Z,78.91
2023-03-29T14:12:01.321Z,79.18
2023-03-29T14:14:51.641Z,79.21
2023-03-29T14:17:46.579Z,78.70
2023-03-29T14:20:51.595Z,78.53
2023-03-29T14:23:22.940Z,78.97
2023-03-29T14:25:50.597Z,78.92
2023-03-29T14:28:29.002Z,78.53
2023-03-29T14:30:57.288Z,79.29
2023-03-29T14:33:34.614Z,78.98
2023-03-29T14:36:04.369Z,78.44
2023-03-29T14:38:37.824Z,78.54
2023-03-29T14:41:05.213Z,78.21
2023-03-29T14:43:32.573Z,78.30
2023-03-29T14:46:03.067Z,78.39
2023-03-29T14:48:33.279Z,78.45
2023-03-29T14:51:01.544Z,78.38
2023-03-29T14:53:32.055Z,78.80
2023-03-29T14:55:59.766Z,78.71
2023-03-29T14:58:34.026Z,79.40
2023-03-29T15:01:28.017Z,78.87
2023-03-29T15:04:11.744Z,79.08
2023-03-29T15:06:44.382Z,79.18
2023-03-29T15:09:22.877Z,78.49
2023-03-29T15:11:55.285Z,78.65
2023-03-29T15:14:25.104Z,78.75
2023-03-29T15:16:57.006Z,78.67
2023-03-29T15:19:26.270Z,78.74
2023-03-29T15:21:53.437Z,78.90
2023-03-29T15:24:28.020Z,78.67
2023-03-29T15:27:05.663Z,78.79
2023-03-29T15:29:42.049Z,78.89
2023-03-29T15:32:34.873Z,79.81
2023-03-29T15:35:05.164Z,79.59
2023-03-29T15:37:32.973Z,80.04
2023-03-29T15:40:00.320Z,80.46
2023-03-29T15:42:27.607Z,80.47
2023-03-29T15:44:56.404Z,79.81
2023-03-29T15:47:24.294Z,80.12
2023-03-29T15:49:51.943Z,80.28
2023-03-29T15:52:19.148Z,80.24
2023-03-29T15:54:46.502Z,79.92
2023-03-29T15:57:15.993Z,79.77
2023-03-29T15:59:43.999Z,79.82
2023-03-29T16:02:17.647Z,79.20
2023-03-29T16:04:45.039Z,79.74
2023-03-29T16:07:16.104Z,79.52
2023-03-29T16:09:44.242Z,79.71
2023-03-29T16:12:11.323Z,79.15
2023-03-29T16:14:39.134Z,78.95
2023-03-29T16:17:06.584Z,79.04
2023-03-29T16:19:34.453Z,79.13
2023-03-29T16:22:07.277Z,78.71
2023-03-29T16:24:36.098Z,78.97
2023-03-29T16:27:04.228Z,79.20
2023-03-29T16:29:31.442Z,78.30
2023-03-29T16:31:58.795Z,78.60
2023-03-29T16:34:26.320Z,78.67
2023-03-29T16:36:54.211Z,78.53
2023-03-29T16:39:21.794Z,78.29
2023-03-29T16:41:50.351Z,78.48
2023-03-29T16:44:23.933Z,78.57
2023-03-29T16:46:57.764Z,78.51
2023-03-29T16:49:25.149Z,78.14
2023-03-29T16:51:52.322Z,77.95
2023-03-29T16:54:19.344Z,78.00
2023-03-29T16:56:47.123Z,77.65
2023-03-29T16:59:14.494Z,77.10
2023-03-29T17:01:41.637Z,77.69
2023-03-29T17:04:11.852Z,77.71
2023-03-29T17:06:38.913Z,77.63
2023-03-29T17:09:06.252Z,77.48
2023-03-29T17:11:33.566Z,77.08
2023-03-29T17:14:00.860Z,77.03
2023-03-29T17:16:29.361Z,77.38
2023-03-29T17:19:00.514Z,76.76
2023-03-29T17:21:29.410Z,77.04
2023-03-29T17:23:56.697Z,76.64
2023-03-29T17:26:23.831Z,76.72
2023-03-29T17:28:50.939Z,76.86
2023-03-29T17:31:19.575Z,76.50
2023-03-29T17:33:47.551Z,76.46
2023-03-29T17:36:14.780Z,76.69
2023-03-29T17:38:43.156Z,77.07
2023-03-29T17:41:11.198Z,76.73
2023-03-29T17:43:38.251Z,76.45
2023-03-29T17:46:05.938Z,76.43
2023-03-29T17:48:33.504Z,76.72
2023-03-29T17:51:00.980Z,76.15
2023-03-29T17:53:28.030Z,77.09
2023-03-29T17:55:57.808Z,77.06
2023-03-29T17:58:28.292Z,76.39
2023-03-29T18:00:55.820Z,76.83
2023-03-29T18:03:23.064Z,76.79
2023-03-29T18:05:50.473Z,77.16
2023-03-29T18:08:17.537Z,76.84
2023-03-29T18:10:44.650Z,76.98
2023-03-29T18:13:14.276Z,76.91
2023-03-29T18:15:41.616Z,77.43
2023-03-29T18:18:08.948Z,77.67
2023-03-29T18:20:36.334Z,77.28
2023-03-29T18:23:06.285Z,77.34
2023-03-29T18:25:34.821Z,77.39
2023-03-29T18:28:05.232Z,77.43
2023-03-29T18:30:33.254Z,77.46
2023-03-29T18:33:00.727Z,76.99
2023-03-29T18:35:28.126Z,76.98
2023-03-29T18:37:55.470Z,77.79
2023-03-29T18:40:24.979Z,77.76
2023-03-29T18:42:56.257Z,77.75
2023-03-29T18:45:25.011Z,78.05
2023-03-29T18:47:54.940Z,77.76
2023-03-29T18:50:22.831Z,78.15
2023-03-29T18:52:53.579Z,78.66
2023-03-29T18:55:21.106Z,78.58
2023-03-29T18:57:48.590Z,78.70
2023-03-29T19:00:16.018Z,78.77
2023-03-29T19:02:43.258Z,79.23
2023-03-29T19:05:11.506Z,79.62
2023-03-29T19:07:38.672Z,79.67
2023-03-29T19:10:07.295Z,79.98
2023-03-29T19:12:35.640Z,79.85
2023-03-29T19:15:02.993Z,80.29
2023-03-29T19:17:30.939Z,80.62
2023-03-29T19:19:58.107Z,80.26
2023-03-29T19:22:25.386Z,79.92
2023-03-29T19:24:52.468Z,80.40
2023-03-29T19:27:19.594Z,80.20
2023-03-29T19:29:48.206Z,80.23
2023-03-29T19:32:15.649Z,80.71
2023-03-29T19:34:42.700Z,80.13
2023-03-29T19:37:09.706Z,80.91
2023-03-29T19:39:37.055Z,80.37
2023-03-29T19:42:04.332Z,80.42
2023-03-29T19:44:31.735Z,81.00
2023-03-29T19:46:59.327Z,80.68
2023-03-29T19:49:26.510Z,80.96
2023-03-29T19:51:54.974Z,80.98
2023-03-29T19:54:22.056Z,81.24
2023-03-29T19:56:51.930Z,81.03
2023-03-29T19:59:20.305Z,80.76
2023-03-29T20:01:50.894Z,80.86
2023-03-29T20:04:25.185Z,81.02
2023-03-29T20:06:52.262Z,80.71
2023-03-29T20:09:19.299Z,80.20
2023-03-29T20:11:49.075Z,80.44
2023-03-29T20:14:16.221Z,80.57
2023-03-29T20:16:44.305Z,80.51
2023-03-29T20:19:14.095Z,80.29
2023-03-29T20:21:44.045Z,80.36
2023-03-29T20:24:11.613Z,79.70
2023-03-29T20:26:38.722Z,79.73
2023-03-29T20:29:06.399Z,79.80
2023-03-29T20:31:33.494Z,79.48
2023-03-29T20:34:00.716Z,79.37
2023-03-29T20:36:30.831Z,79.57
2023-03-29T20:38:59.407Z,79.08
2023-03-29T20:41:26.752Z,79.10
2023-03-29T20:43:58.970Z,79.50
2023-03-29T20:46:33.671Z,79.53
2023-03-29T20:49:54.278Z,79.64
2023-03-29T20:52:22.862Z,80.11
2023-03-29T20:54:50.590Z,79.49
2023-03-29T20:57:20.977Z,79.75
2023-03-29T20:59:49.407Z,79.93
2023-03-29T21:02:22.267Z,79.81
2023-03-29T21:04:50.844Z,80.33
2023-03-29T21:07:18.656Z,79.83
2023-03-29T21:09:47.379Z,79.64
2023-03-29T21:12:14.403Z,79.97
2023-03-29T21:14:41.739Z,79.89
2023-03-29T21:17:09.552Z,79.97
2023-03-29T21:19:38.903Z,79.93
2023-03-29T21:22:06.330Z,79.59
2023-03-29T21:24:34.069Z,79.39
2023-03-29T21:27:01.415Z,79.36
2023-03-29T21:29:28.520Z,79.50
2023-03-29T21:31:55.985Z,79.38
2023-03-29T21:34:23.051Z,78.91
2023-03-29T21:36:50.696Z,79.43
2023-03-29T21:39:17.849Z,79.39
2023-03-29T21:41:44.890Z,79.56
2023-03-29T21:44:11.977Z,78.98
2023-03-29T21:46:39.164Z,78.73
2023-03-29T21:49:06.171Z,78.71
2023-03-29T21:51:33.214Z,78.73
2023-03-29T21:54:00.357Z,78.77
2023-03-29T21:56:28.278Z,78.52
2023-03-29T21:58:55.377Z,78.81
2023-03-29T22:01:22.397Z,78.74
2023-03-29T22:03:49.510Z,78.66
2023-03-29T22:06:16.525Z,77.76
2023-03-29T22:08:43.520Z,78.43
2023-03-29T22:11:16.655Z,78.03
2023-03-29T22:13:44.474Z,78.22
2023-03-29T22:16:14.118Z,78.13
2023-03-29T22:18:44.362Z,78.21
2023-03-29T22:21:14.557Z,77.61
2023-03-29T22:23:43.001Z,77.77
2023-03-29T22:26:12.375Z,77.30
2023-03-29T22:28:40.582Z,77.15
2023-03-29T22:31:10.633Z,77.11
2023-03-29T22:33:39.527Z,76.97
2023-03-29T22:36:30.723Z,77.12
2023-03-29T22:38:58.051Z,77.07
2023-03-29T22:41:28.328Z,77.12
2023-03-29T22:43:57.819Z,77.54
2023-03-29T22:46:25.517Z,77.75
2023-03-29T22:48:53.444Z,77.70
2023-03-29T22:51:20.917Z,77.54
2023-03-29T22:53:48.310Z,77.51
2023-03-29T22:56:16.537Z,77.25
2023-03-29T22:58:44.491Z,77.57
2023-03-29T23:01:12.242Z,77.66
2023-03-29T23:03:39.363Z,77.51
2023-03-29T23:06:06.758Z,77.26
2023-03-29T23:08:35.125Z,77.27
2023-03-29T23:11:03.477Z,76.77
2023-03-29T23:13:30.808Z,77.04
2023-03-29T23:16:00.314Z,76.57
2023-03-29T23:18:29.662Z,76.17
2023-03-29T23:20:59.058Z,76.40
2023-03-29T23:23:27.662Z,76.10
2023-03-29T23:25:58.340Z,76.39
2023-03-29T23:28:27.664Z,76.62
2023-03-29T23:30:57.093Z,76.68
2023-03-29T23:33:25.914Z,76.15
2023-03-29T23:35:54.657Z,76.32
2023-03-29T23:38:22.028Z,76.71
2023-03-29T23:40:54.248Z,76.48
2023-03-29T23:43:21.427Z,76.96
2023-03-29T23:45:48.545Z,77.15
2023-03-29T23:48:15.538Z,76.32
2023-03-29T23:50:46.385Z,77.50
2023-03-29T23:53:13.405Z,77.09
2023-03-29T23:55:40.420Z,76.96
2023-03-29T23:58:08.034Z,77.34
